sensor_id;sensor_type;location;lat;lon;timestamp;pressure;altitude;pressure_sealevel;temperature;humidity
68197;BME280;55019;49.382;11.358;2022-10-16T00:00:43;96583.16;;;13.94;100.00
68197;BME280;55019;49.382;11.358;2022-10-16T00:03:10;96586.03;;;13.99;100.00
68197;BME280;55019;49.382;11.358;2022-10-16T00:05:43;96574.13;;;13.90;100.00
68197;BME280;55019;49.382;11.358;2022-10-16T00:08:10;96582.88;;;13.82;100.00
68197;BME280;55019;49.382;11.358;2022-10-16T00:10:36;96575.00;;;13.76;100.00
68197;BME280;55019;49.382;11.358;2022-10-16T00:13:01;96579.19;;;13.77;100.00
68197;BME280;55019;49.382;11.358;2022-10-16T00:15:27;96581.63;;;13.78;100.00
68197;BME280;55019;49.382;11.358;2022-10-16T00:17:52;96575.53;;;13.71;100.00
68197;BME280;55019;49.382;11.358;2022-10-16T00:20:18;96569.09;;;13.67;100.00
68197;BME280;55019;49.382;11.358;2022-10-16T00:22:43;96570.25;;;13.65;100.00
68197;BME280;55019;49.382;11.358;2022-10-16T00:25:09;96569.44;;;13.64;100.00
68197;BME280;55019;49.382;11.358;2022-10-16T00:27:34;96576.81;;;13.61;100.00
68197;BME280;55019;49.382;11.358;2022-10-16T00:30:00;96578.41;;;13.62;100.00
68197;BME280;55019;49.382;11.358;2022-10-16T00:32:25;96581.81;;;13.62;100.00
68197;BME280;55019;49.382;11.358;2022-10-16T00:34:51;96581.81;;;13.62;100.00
68197;BME280;55019;49.382;11.358;2022-10-16T00:37:19;96590.59;;;13.61;100.00
68197;BME280;55019;49.382;11.358;2022-10-16T00:39:44;96585.03;;;13.64;100.00
68197;BME280;55019;49.382;11.358;2022-10-16T00:42:15;96598.94;;;13.57;100.00
68197;BME280;55019;49.382;11.358;2022-10-16T00:44:53;96592.56;;;13.59;100.00
68197;BME280;55019;49.382;11.358;2022-10-16T00:47:23;96600.91;;;13.55;100.00
68197;BME280;55019;49.382;11.358;2022-10-16T00:49:52;96599.63;;;13.51;100.00
68197;BME280;55019;49.382;11.358;2022-10-16T00:52:19;96596.03;;;13.52;100.00
68197;BME280;55019;49.382;11.358;2022-10-16T00:54:46;96594.44;;;13.51;100.00
68197;BME280;55019;49.382;11.358;2022-10-16T00:57:12;96594.88;;;13.54;100.00
68197;BME280;55019;49.382;11.358;2022-10-16T00:59:40;96597.69;;;13.53;100.00
68197;BME280;55019;49.382;11.358;2022-10-16T01:02:08;96601.88;;;13.54;100.00
68197;BME280;55019;49.382;11.358;2022-10-16T01:04:40;96600.09;;;13.54;100.00
68197;BME280;55019;49.382;11.358;2022-10-16T01:12:36;96597.59;;;13.46;100.00
68197;BME280;55019;49.382;11.358;2022-10-16T01:15:26;96600.97;;;13.47;100.00
68197;BME280;55019;49.382;11.358;2022-10-16T01:18:00;96601.59;;;13.49;100.00
68197;BME280;55019;49.382;11.358;2022-10-16T01:20:42;96604.81;;;13.51;100.00
68197;BME280;55019;49.382;11.358;2022-10-16T01:28:40;96600.81;;;13.48;100.00
68197;BME280;55019;49.382;11.358;2022-10-16T01:31:10;96602.31;;;13.43;100.00
68197;BME280;55019;49.382;11.358;2022-10-16T01:33:43;96608.31;;;13.43;100.00
68197;BME280;55019;49.382;11.358;2022-10-16T01:36:17;96609.13;;;13.44;100.00
68197;BME280;55019;49.382;11.358;2022-10-16T01:38:49;96614.94;;;13.46;100.00
68197;BME280;55019;49.382;11.358;2022-10-16T01:41:21;96606.00;;;13.48;100.00
68197;BME280;55019;49.382;11.358;2022-10-16T01:44:15;96601.22;;;13.52;100.00
68197;BME280;55019;49.382;11.358;2022-10-16T01:46:41;96603.81;;;13.52;100.00
68197;BME280;55019;49.382;11.358;2022-10-16T01:49:09;96597.22;;;13.49;100.00
68197;BME280;55019;49.382;11.358;2022-10-16T01:51:37;96611.97;;;13.49;100.00
68197;BME280;55019;49.382;11.358;2022-10-16T01:54:04;96610.38;;;13.48;100.00
68197;BME280;55019;49.382;11.358;2022-10-16T01:56:32;96614.22;;;13.52;100.00
68197;BME280;55019;49.382;11.358;2022-10-16T01:59:02;96611.63;;;13.52;100.00
68197;BME280;55019;49.382;11.358;2022-10-16T02:01:31;96619.41;;;13.52;100.00
68197;BME280;55019;49.382;11.358;2022-10-16T02:04:03;96622.97;;;13.51;100.00
68197;BME280;55019;49.382;11.358;2022-10-16T02:06:30;96633.38;;;13.51;100.00
68197;BME280;55019;49.382;11.358;2022-10-16T02:08:55;96625.94;;;13.48;100.00
68197;BME280;55019;49.382;11.358;2022-10-16T02:11:21;96631.94;;;13.63;100.00
68197;BME280;55019;49.382;11.358;2022-10-16T02:14:00;96640.47;;;13.57;100.00
68197;BME280;55019;49.382;11.358;2022-10-16T02:16:43;96644.41;;;13.53;100.00
68197;BME280;55019;49.382;11.358;2022-10-16T02:19:09;96634.34;;;13.50;100.00
68197;BME280;55019;49.382;11.358;2022-10-16T02:21:44;96635.97;;;13.51;100.00
68197;BME280;55019;49.382;11.358;2022-10-16T02:27:01;96642.50;;;13.61;100.00
68197;BME280;55019;49.382;11.358;2022-10-16T02:29:28;96637.03;;;13.71;100.00
68197;BME280;55019;49.382;11.358;2022-10-16T02:31:59;96633.34;;;13.80;100.00
68197;BME280;55019;49.382;11.358;2022-10-16T02:34:32;96632.38;;;13.81;100.00
68197;BME280;55019;49.382;11.358;2022-10-16T02:36:59;96631.38;;;13.96;100.00
68197;BME280;55019;49.382;11.358;2022-10-16T02:39:27;96638.72;;;13.93;100.00
68197;BME280;55019;49.382;11.358;2022-10-16T02:41:53;96641.75;;;13.96;100.00
68197;BME280;55019;49.382;11.358;2022-10-16T02:44:19;96632.25;;;14.03;100.00
68197;BME280;55019;49.382;11.358;2022-10-16T02:46:44;96640.56;;;13.99;100.00
68197;BME280;55019;49.382;11.358;2022-10-16T02:49:09;96637.34;;;13.97;100.00
68197;BME280;55019;49.382;11.358;2022-10-16T02:51:35;96636.63;;;14.03;100.00
68197;BME280;55019;49.382;11.358;2022-10-16T02:54:02;96637.28;;;14.05;100.00
68197;BME280;55019;49.382;11.358;2022-10-16T02:56:27;96635.09;;;14.08;100.00
68197;BME280;55019;49.382;11.358;2022-10-16T02:58:53;96626.91;;;13.90;100.00
68197;BME280;55019;49.382;11.358;2022-10-16T03:01:18;96628.78;;;13.82;100.00
68197;BME280;55019;49.382;11.358;2022-10-16T03:03:43;96631.50;;;13.74;100.00
68197;BME280;55019;49.382;11.358;2022-10-16T03:06:09;96630.59;;;13.67;100.00
68197;BME280;55019;49.382;11.358;2022-10-16T03:08:34;96624.16;;;13.63;100.00
68197;BME280;55019;49.382;11.358;2022-10-16T03:11:00;96625.88;;;13.56;100.00
68197;BME280;55019;49.382;11.358;2022-10-16T03:13:25;96621.31;;;13.58;100.00
68197;BME280;55019;49.382;11.358;2022-10-16T03:15:50;96628.47;;;13.56;100.00
68197;BME280;55019;49.382;11.358;2022-10-16T03:18:16;96634.91;;;13.60;100.00
68197;BME280;55019;49.382;11.358;2022-10-16T03:20:43;96632.69;;;13.57;100.00
68197;BME280;55019;49.382;11.358;2022-10-16T03:23:09;96628.84;;;13.53;100.00
68197;BME280;55019;49.382;11.358;2022-10-16T03:25:37;96632.38;;;13.52;100.00
68197;BME280;55019;49.382;11.358;2022-10-16T03:28:03;96632.06;;;13.55;100.00
68197;BME280;55019;49.382;11.358;2022-10-16T03:30:29;96625.69;;;13.57;100.00
68197;BME280;55019;49.382;11.358;2022-10-16T03:32:54;96625.25;;;13.54;100.00
68197;BME280;55019;49.382;11.358;2022-10-16T03:35:20;96631.31;;;13.61;100.00
68197;BME280;55019;49.382;11.358;2022-10-16T03:37:46;96637.56;;;13.52;100.00
68197;BME280;55019;49.382;11.358;2022-10-16T03:40:11;96641.81;;;13.53;100.00
68197;BME280;55019;49.382;11.358;2022-10-16T03:42:37;96644.84;;;13.56;100.00
68197;BME280;55019;49.382;11.358;2022-10-16T03:45:05;96637.25;;;13.55;100.00
68197;BME280;55019;49.382;11.358;2022-10-16T03:47:31;96645.66;;;13.57;100.00
68197;BME280;55019;49.382;11.358;2022-10-16T03:49:58;96645.19;;;13.53;100.00
68197;BME280;55019;49.382;11.358;2022-10-16T03:52:24;96638.75;;;13.49;100.00
68197;BME280;55019;49.382;11.358;2022-10-16T03:54:50;96647.34;;;13.50;100.00
68197;BME280;55019;49.382;11.358;2022-10-16T03:57:15;96648.25;;;13.57;100.00
68197;BME280;55019;49.382;11.358;2022-10-16T03:59:41;96636.78;;;13.51;100.00
68197;BME280;55019;49.382;11.358;2022-10-16T04:02:06;96644.41;;;13.53;100.00
68197;BME280;55019;49.382;11.358;2022-10-16T04:04:31;96654.78;;;13.53;100.00
68197;BME280;55019;49.382;11.358;2022-10-16T04:06:57;96642.44;;;13.55;100.00
68197;BME280;55019;49.382;11.358;2022-10-16T04:09:22;96642.69;;;13.60;100.00
68197;BME280;55019;49.382;11.358;2022-10-16T04:11:47;96654.97;;;13.66;100.00
68197;BME280;55019;49.382;11.358;2022-10-16T04:14:13;96642.88;;;13.58;100.00
68197;BME280;55019;49.382;11.358;2022-10-16T04:16:38;96649.13;;;13.64;100.00
68197;BME280;55019;49.382;11.358;2022-10-16T04:19:04;96653.09;;;13.60;100.00
68197;BME280;55019;49.382;11.358;2022-10-16T04:21:29;96663.19;;;13.55;100.00
68197;BME280;55019;49.382;11.358;2022-10-16T04:23:55;96666.78;;;13.54;100.00
68197;BME280;55019;49.382;11.358;2022-10-16T04:26:20;96673.22;;;13.58;100.00
68197;BME280;55019;49.382;11.358;2022-10-16T04:28:45;96671.63;;;13.57;100.00
68197;BME280;55019;49.382;11.358;2022-10-16T04:31:11;96680.38;;;13.56;100.00
68197;BME280;55019;49.382;11.358;2022-10-16T04:33:36;96681.06;;;13.50;100.00
68197;BME280;55019;49.382;11.358;2022-10-16T04:36:02;96682.53;;;13.52;100.00
68197;BME280;55019;49.382;11.358;2022-10-16T04:38:28;96672.03;;;13.60;100.00
68197;BME280;55019;49.382;11.358;2022-10-16T04:40:54;96684.41;;;13.73;100.00
68197;BME280;55019;49.382;11.358;2022-10-16T04:43:19;96671.06;;;13.76;100.00
68197;BME280;55019;49.382;11.358;2022-10-16T04:45:45;96677.16;;;13.83;100.00
68197;BME280;55019;49.382;11.358;2022-10-16T04:48:10;96671.94;;;13.83;100.00
68197;BME280;55019;49.382;11.358;2022-10-16T04:50:36;96666.22;;;13.73;100.00
68197;BME280;55019;49.382;11.358;2022-10-16T04:53:01;96674.75;;;13.67;100.00
68197;BME280;55019;49.382;11.358;2022-10-16T04:55:27;96676.44;;;13.60;100.00
68197;BME280;55019;49.382;11.358;2022-10-16T04:57:52;96676.44;;;13.60;100.00
68197;BME280;55019;49.382;11.358;2022-10-16T05:00:18;96675.81;;;13.58;100.00
68197;BME280;55019;49.382;11.358;2022-10-16T05:02:43;96673.75;;;13.53;100.00
68197;BME280;55019;49.382;11.358;2022-10-16T05:05:09;96671.97;;;13.54;100.00
68197;BME280;55019;49.382;11.358;2022-10-16T05:07:34;96673.28;;;13.50;100.00
68197;BME280;55019;49.382;11.358;2022-10-16T05:09:59;96672.31;;;13.51;100.00
68197;BME280;55019;49.382;11.358;2022-10-16T05:12:25;96663.88;;;13.49;100.00
68197;BME280;55019;49.382;11.358;2022-10-16T05:14:50;96666.22;;;13.44;100.00
68197;BME280;55019;49.382;11.358;2022-10-16T05:17:16;96668.66;;;13.45;100.00
68197;BME280;55019;49.382;11.358;2022-10-16T05:19:41;96664.59;;;13.43;100.00
68197;BME280;55019;49.382;11.358;2022-10-16T05:22:06;96670.63;;;13.43;100.00
68197;BME280;55019;49.382;11.358;2022-10-16T05:24:32;96674.22;;;13.57;100.00
68197;BME280;55019;49.382;11.358;2022-10-16T05:26:57;96677.69;;;13.49;100.00
68197;BME280;55019;49.382;11.358;2022-10-16T05:29:23;96677.94;;;13.40;100.00
68197;BME280;55019;49.382;11.358;2022-10-16T05:31:52;96681.25;;;13.34;100.00
68197;BME280;55019;49.382;11.358;2022-10-16T05:34:18;96683.69;;;13.35;100.00
68197;BME280;55019;49.382;11.358;2022-10-16T05:36:43;96683.56;;;13.29;100.00
68197;BME280;55019;49.382;11.358;2022-10-16T05:39:10;96680.34;;;13.27;100.00
68197;BME280;55019;49.382;11.358;2022-10-16T05:41:36;96692.22;;;13.21;100.00
68197;BME280;55019;49.382;11.358;2022-10-16T05:44:04;96699.84;;;13.23;100.00
68197;BME280;55019;49.382;11.358;2022-10-16T05:46:29;96700.13;;;13.28;100.00
68197;BME280;55019;49.382;11.358;2022-10-16T05:48:55;96700.28;;;13.26;100.00
68197;BME280;55019;49.382;11.358;2022-10-16T05:51:20;96700.75;;;13.30;100.00
68197;BME280;55019;49.382;11.358;2022-10-16T05:53:46;96718.13;;;13.29;100.00
68197;BME280;55019;49.382;11.358;2022-10-16T05:56:11;96712.31;;;13.27;100.00
68197;BME280;55019;49.382;11.358;2022-10-16T05:58:38;96724.81;;;13.24;100.00
68197;BME280;55019;49.382;11.358;2022-10-16T06:01:16;96725.78;;;13.23;100.00
68197;BME280;55019;49.382;11.358;2022-10-16T06:03:42;96734.72;;;13.20;100.00
68197;BME280;55019;49.382;11.358;2022-10-16T06:06:12;96721.50;;;13.30;100.00
68197;BME280;55019;49.382;11.358;2022-10-16T06:08:39;96737.78;;;13.24;100.00
68197;BME280;55019;49.382;11.358;2022-10-16T06:11:07;96739.19;;;13.26;100.00
68197;BME280;55019;49.382;11.358;2022-10-16T06:13:32;96739.16;;;13.34;100.00
68197;BME280;55019;49.382;11.358;2022-10-16T06:15:59;96739.34;;;13.47;100.00
68197;BME280;55019;49.382;11.358;2022-10-16T06:18:26;96740.72;;;13.58;100.00
68197;BME280;55019;49.382;11.358;2022-10-16T06:20:52;96733.91;;;13.71;100.00
68197;BME280;55019;49.382;11.358;2022-10-16T06:23:17;96736.88;;;13.83;100.00
68197;BME280;55019;49.382;11.358;2022-10-16T06:25:43;96746.03;;;13.93;100.00
68197;BME280;55019;49.382;11.358;2022-10-16T06:28:08;96746.28;;;13.98;100.00
68197;BME280;55019;49.382;11.358;2022-10-16T06:30:33;96751.66;;;13.97;100.00
68197;BME280;55019;49.382;11.358;2022-10-16T06:33:00;96748.63;;;14.08;100.00
68197;BME280;55019;49.382;11.358;2022-10-16T06:35:25;96762.53;;;14.15;100.00
68197;BME280;55019;49.382;11.358;2022-10-16T06:37:52;96750.84;;;14.25;100.00
68197;BME280;55019;49.382;11.358;2022-10-16T06:40:18;96757.75;;;14.33;100.00
68197;BME280;55019;49.382;11.358;2022-10-16T06:42:43;96763.78;;;14.33;100.00
68197;BME280;55019;49.382;11.358;2022-10-16T06:45:09;96755.69;;;14.28;100.00
68197;BME280;55019;49.382;11.358;2022-10-16T06:47:34;96764.03;;;14.24;100.00
68197;BME280;55019;49.382;11.358;2022-10-16T06:50:00;96757.66;;;14.26;100.00
68197;BME280;55019;49.382;11.358;2022-10-16T06:52:27;96759.19;;;14.35;100.00
68197;BME280;55019;49.382;11.358;2022-10-16T06:54:53;96761.94;;;14.48;100.00
68197;BME280;55019;49.382;11.358;2022-10-16T06:57:18;96768.75;;;14.63;99.87
68197;BME280;55019;49.382;11.358;2022-10-16T06:59:44;96771.09;;;14.79;99.48
68197;BME280;55019;49.382;11.358;2022-10-16T07:02:12;96764.66;;;14.96;98.09
68197;BME280;55019;49.382;11.358;2022-10-16T07:04:37;96775.22;;;15.09;97.25
68197;BME280;55019;49.382;11.358;2022-10-16T07:07:03;96777.88;;;15.16;95.95
68197;BME280;55019;49.382;11.358;2022-10-16T07:09:28;96777.47;;;15.33;95.06
68197;BME280;55019;49.382;11.358;2022-10-16T07:11:53;96772.28;;;15.19;96.12
68197;BME280;55019;49.382;11.358;2022-10-16T07:14:20;96773.50;;;15.16;95.59
68197;BME280;55019;49.382;11.358;2022-10-16T07:16:47;96789.59;;;15.05;96.13
68197;BME280;55019;49.382;11.358;2022-10-16T07:19:13;96786.47;;;14.95;96.54
68197;BME280;55019;49.382;11.358;2022-10-16T07:21:40;96806.78;;;14.85;96.79
68197;BME280;55019;49.382;11.358;2022-10-16T07:24:10;96806.16;;;14.83;97.38
68197;BME280;55019;49.382;11.358;2022-10-16T07:26:36;96814.69;;;14.77;98.46
68197;BME280;55019;49.382;11.358;2022-10-16T07:29:04;96816.06;;;14.73;99.04
68197;BME280;55019;49.382;11.358;2022-10-16T07:31:30;96828.06;;;14.74;99.31
68197;BME280;55019;49.382;11.358;2022-10-16T07:33:58;96829.44;;;14.70;99.17
68197;BME280;55019;49.382;11.358;2022-10-16T07:36:23;96829.44;;;14.70;99.99
68197;BME280;55019;49.382;11.358;2022-10-16T07:38:49;96831.22;;;14.70;99.68
68197;BME280;55019;49.382;11.358;2022-10-16T07:41:16;96821.50;;;14.78;100.00
68197;BME280;55019;49.382;11.358;2022-10-16T07:43:50;96840.84;;;14.90;99.24
68197;BME280;55019;49.382;11.358;2022-10-16T07:46:21;96839.03;;;15.05;98.09
68197;BME280;55019;49.382;11.358;2022-10-16T07:48:50;96833.47;;;15.08;97.89
68197;BME280;55019;49.382;11.358;2022-10-16T07:51:17;96839.03;;;15.05;97.08
68197;BME280;55019;49.382;11.358;2022-10-16T07:53:43;96844.16;;;14.99;97.52
68197;BME280;55019;49.382;11.358;2022-10-16T07:56:09;96846.50;;;14.94;98.39
68197;BME280;55019;49.382;11.358;2022-10-16T07:58:35;96841.59;;;14.84;99.22
68197;BME280;55019;49.382;11.358;2022-10-16T08:01:09;96834.50;;;14.93;98.67
68197;BME280;55019;49.382;11.358;2022-10-16T08:03:35;96821.59;;;14.85;99.28
68197;BME280;55019;49.382;11.358;2022-10-16T08:06:01;96827.13;;;14.96;98.99
68197;BME280;55019;49.382;11.358;2022-10-16T08:08:27;96823.78;;;15.02;97.67
68197;BME280;55019;49.382;11.358;2022-10-16T08:10:53;96824.69;;;15.09;97.74
68197;BME280;55019;49.382;11.358;2022-10-16T08:13:18;96824.34;;;15.19;98.48
68197;BME280;55019;49.382;11.358;2022-10-16T08:15:44;96823.72;;;15.31;96.15
68197;BME280;55019;49.382;11.358;2022-10-16T08:18:11;96822.22;;;15.43;96.57
68197;BME280;55019;49.382;11.358;2022-10-16T08:20:37;96830.34;;;15.55;96.58
68197;BME280;55019;49.382;11.358;2022-10-16T08:23:02;96836.84;;;15.65;94.99
68197;BME280;55019;49.382;11.358;2022-10-16T08:25:28;96831.75;;;15.78;92.43
68197;BME280;55019;49.382;11.358;2022-10-16T08:27:53;96830.75;;;16.06;91.00
68197;BME280;55019;49.382;11.358;2022-10-16T08:30:20;96840.91;;;16.29;88.77
68197;BME280;55019;49.382;11.358;2022-10-16T08:32:46;96841.22;;;16.81;86.39
68197;BME280;55019;49.382;11.358;2022-10-16T08:35:12;96861.41;;;17.13;85.02
68197;BME280;55019;49.382;11.358;2022-10-16T08:37:38;96864.38;;;17.82;82.50
68197;BME280;55019;49.382;11.358;2022-10-16T08:40:06;96870.81;;;18.12;79.58
68197;BME280;55019;49.382;11.358;2022-10-16T08:42:35;96866.38;;;18.26;80.82
68197;BME280;55019;49.382;11.358;2022-10-16T08:50:09;96863.75;;;19.15;77.13
68197;BME280;55019;49.382;11.358;2022-10-16T08:52:39;96859.69;;;19.81;76.04
68197;BME280;55019;49.382;11.358;2022-10-16T08:55:05;96857.06;;;20.54;71.54
68197;BME280;55019;49.382;11.358;2022-10-16T08:57:31;96850.16;;;22.18;66.11
68197;BME280;55019;49.382;11.358;2022-10-16T09:00:12;96862.31;;;22.30;64.36
68197;BME280;55019;49.382;11.358;2022-10-16T09:02:52;96859.56;;;22.83;60.32
68197;BME280;55019;49.382;11.358;2022-10-16T09:08:40;96877.97;;;22.14;62.75
68197;BME280;55019;49.382;11.358;2022-10-16T09:16:44;96871.78;;;20.73;65.13
68197;BME280;55019;49.382;11.358;2022-10-16T09:19:20;96883.97;;;20.01;71.55
68197;BME280;55019;49.382;11.358;2022-10-16T09:21:49;96880.66;;;19.81;69.15
68197;BME280;55019;49.382;11.358;2022-10-16T09:24:17;96874.28;;;20.26;69.01
68197;BME280;55019;49.382;11.358;2022-10-16T09:26:44;96861.44;;;22.59;60.14
68197;BME280;55019;49.382;11.358;2022-10-16T09:29:12;96864.06;;;22.71;58.61
68197;BME280;55019;49.382;11.358;2022-10-16T09:31:38;96869.25;;;23.45;57.83
68197;BME280;55019;49.382;11.358;2022-10-16T09:34:05;96866.41;;;24.56;55.02
68197;BME280;55019;49.382;11.358;2022-10-16T09:36:43;96861.66;;;24.58;54.25
68197;BME280;55019;49.382;11.358;2022-10-16T09:39:11;96867.34;;;24.17;57.99
68197;BME280;55019;49.382;11.358;2022-10-16T09:41:39;96861.00;;;23.41;58.03
68197;BME280;55019;49.382;11.358;2022-10-16T09:44:19;96876.44;;;22.47;62.35
68197;BME280;55019;49.382;11.358;2022-10-16T09:46:46;96871.44;;;21.35;64.97
68197;BME280;55019;49.382;11.358;2022-10-16T09:51:43;96893.28;;;19.66;66.52
68197;BME280;55019;49.382;11.358;2022-10-16T09:56:35;96898.53;;;18.52;72.30
68197;BME280;55019;49.382;11.358;2022-10-16T09:59:08;96898.38;;;18.34;72.91
68197;BME280;55019;49.382;11.358;2022-10-16T10:01:47;96907.19;;;18.14;74.04
68197;BME280;55019;49.382;11.358;2022-10-16T10:04:14;96916.44;;;18.03;74.91
68197;BME280;55019;49.382;11.358;2022-10-16T10:09:17;96918.47;;;17.88;76.08
68197;BME280;55019;49.382;11.358;2022-10-16T10:11:47;96913.44;;;18.13;75.08
68197;BME280;55019;49.382;11.358;2022-10-16T10:16:41;96906.00;;;19.25;71.48
68197;BME280;55019;49.382;11.358;2022-10-16T10:19:16;96904.94;;;19.70;69.54
68197;BME280;55019;49.382;11.358;2022-10-16T10:21:42;96907.13;;;20.52;66.41
68197;BME280;55019;49.382;11.358;2022-10-16T10:24:13;96904.03;;;20.38;65.81
68197;BME280;55019;49.382;11.358;2022-10-16T10:26:47;96900.94;;;20.65;65.43
68197;BME280;55019;49.382;11.358;2022-10-16T10:31:56;96913.09;;;20.17;65.47
68197;BME280;55019;49.382;11.358;2022-10-16T10:34:56;96899.81;;;21.62;61.37
68197;BME280;55019;49.382;11.358;2022-10-16T10:37:43;96897.34;;;22.88;56.96
68197;BME280;55019;49.382;11.358;2022-10-16T10:43:16;96890.41;;;22.71;55.37
68197;BME280;55019;49.382;11.358;2022-10-16T10:45:48;96899.69;;;21.98;58.71
68197;BME280;55019;49.382;11.358;2022-10-16T10:50:57;96902.56;;;20.24;64.01
68197;BME280;55019;49.382;11.358;2022-10-16T11:02:04;96908.78;;;25.42;53.86
68197;BME280;55019;49.382;11.358;2022-10-16T11:07:17;96895.63;;;27.75;41.76
68197;BME280;55019;49.382;11.358;2022-10-16T11:09:48;96896.56;;;27.39;43.40
68197;BME280;55019;49.382;11.358;2022-10-16T11:12:25;96905.28;;;25.63;48.29
68197;BME280;55019;49.382;11.358;2022-10-16T11:17:54;96904.50;;;24.27;51.80
68197;BME280;55019;49.382;11.358;2022-10-16T11:20:25;96909.19;;;22.51;56.43
68197;BME280;55019;49.382;11.358;2022-10-16T11:23:09;96911.75;;;21.47;60.98
68197;BME280;55019;49.382;11.358;2022-10-16T11:25:38;96915.78;;;21.31;61.12
68197;BME280;55019;49.382;11.358;2022-10-16T11:28:11;96902.97;;;20.87;63.40
68197;BME280;55019;49.382;11.358;2022-10-16T11:33:39;96906.03;;;20.18;66.06
68197;BME280;55019;49.382;11.358;2022-10-16T11:39:08;96907.75;;;19.75;68.58
68197;BME280;55019;49.382;11.358;2022-10-16T11:41:48;96904.47;;;19.79;69.57
68197;BME280;55019;49.382;11.358;2022-10-16T11:46:44;96903.47;;;20.36;67.49
68197;BME280;55019;49.382;11.358;2022-10-16T11:49:18;96903.66;;;20.76;65.23
68197;BME280;55019;49.382;11.358;2022-10-16T11:52:13;96903.53;;;21.07;64.35
68197;BME280;55019;49.382;11.358;2022-10-16T11:54:49;96914.31;;;21.35;62.91
68197;BME280;55019;49.382;11.358;2022-10-16T11:57:42;96911.00;;;22.51;60.42
68197;BME280;55019;49.382;11.358;2022-10-16T12:08:25;96911.03;;;29.03;41.24
68197;BME280;55019;49.382;11.358;2022-10-16T12:10:50;96911.44;;;31.22;37.63
68197;BME280;55019;49.382;11.358;2022-10-16T12:13:36;96904.22;;;31.64;36.32
68197;BME280;55019;49.382;11.358;2022-10-16T12:18:40;96915.44;;;26.96;45.73
68197;BME280;55019;49.382;11.358;2022-10-16T12:21:06;96906.59;;;24.96;51.33
68197;BME280;55019;49.382;11.358;2022-10-16T12:23:48;96912.63;;;24.09;52.85
68197;BME280;55019;49.382;11.358;2022-10-16T12:26:24;96919.47;;;24.22;53.66
68197;BME280;55019;49.382;11.358;2022-10-16T12:28:50;96921.09;;;26.06;48.82
68197;BME280;55019;49.382;11.358;2022-10-16T12:31:17;96913.97;;;27.87;42.83
68197;BME280;55019;49.382;11.358;2022-10-16T12:33:56;96915.28;;;29.77;39.56
68197;BME280;55019;49.382;11.358;2022-10-16T12:36:31;96911.44;;;30.31;40.70
68197;BME280;55019;49.382;11.358;2022-10-16T12:38:58;96906.81;;;28.92;40.41
68197;BME280;55019;49.382;11.358;2022-10-16T12:41:32;96912.84;;;27.06;44.85
68197;BME280;55019;49.382;11.358;2022-10-16T12:43:59;96918.50;;;24.98;49.03
68197;BME280;55019;49.382;11.358;2022-10-16T12:46:39;96922.63;;;23.63;52.66
68197;BME280;55019;49.382;11.358;2022-10-16T12:51:40;96922.91;;;22.88;54.97
68197;BME280;55019;49.382;11.358;2022-10-16T12:56:57;96914.38;;;22.05;59.16
68197;BME280;55019;49.382;11.358;2022-10-16T13:22:18;96929.63;;;23.57;53.20
68197;BME280;55019;49.382;11.358;2022-10-16T13:27:54;96936.91;;;24.39;50.80
68197;BME280;55019;49.382;11.358;2022-10-16T13:30:24;96932.66;;;25.47;47.65
68197;BME280;55019;49.382;11.358;2022-10-16T13:33:03;96934.78;;;25.71;47.23
68197;BME280;55019;49.382;11.358;2022-10-16T13:35:31;96938.59;;;25.59;47.26
68197;BME280;55019;49.382;11.358;2022-10-16T13:38:15;96930.81;;;25.74;45.99
68197;BME280;55019;49.382;11.358;2022-10-16T13:40:58;96931.88;;;24.54;49.26
68197;BME280;55019;49.382;11.358;2022-10-16T13:43:36;96938.56;;;23.29;52.58
68197;BME280;55019;49.382;11.358;2022-10-16T13:46:05;96938.72;;;22.76;54.94
68197;BME280;55019;49.382;11.358;2022-10-16T13:48:33;96937.19;;;23.26;54.89
68197;BME280;55019;49.382;11.358;2022-10-16T13:53:25;96929.94;;;25.42;47.27
68197;BME280;55019;49.382;11.358;2022-10-16T13:55:50;96931.19;;;25.82;45.13
68197;BME280;55019;49.382;11.358;2022-10-16T13:58:16;96928.38;;;25.89;46.65
68197;BME280;55019;49.382;11.358;2022-10-16T14:01:06;96927.31;;;25.90;45.35
68197;BME280;55019;49.382;11.358;2022-10-16T14:03:41;96924.22;;;25.28;47.11
68197;BME280;55019;49.382;11.358;2022-10-16T14:06:13;96926.47;;;25.20;47.20
68197;BME280;55019;49.382;11.358;2022-10-16T14:08:43;96935.13;;;24.94;47.99
68197;BME280;55019;49.382;11.358;2022-10-16T14:11:10;96932.28;;;24.79;48.79
68197;BME280;55019;49.382;11.358;2022-10-16T14:13:43;96946.41;;;24.90;48.34
68197;BME280;55019;49.382;11.358;2022-10-16T14:16:11;96946.22;;;24.58;48.64
68197;BME280;55019;49.382;11.358;2022-10-16T14:18:45;96943.06;;;24.28;50.01
68197;BME280;55019;49.382;11.358;2022-10-16T14:21:13;96949.41;;;24.27;50.10
68197;BME280;55019;49.382;11.358;2022-10-16T14:23:40;96943.53;;;24.09;50.02
68197;BME280;55019;49.382;11.358;2022-10-16T14:28:38;96958.16;;;24.16;50.75
68197;BME280;55019;49.382;11.358;2022-10-16T14:31:34;96960.59;;;23.90;50.90
68197;BME280;55019;49.382;11.358;2022-10-16T14:34:02;96956.00;;;23.57;52.47
68197;BME280;55019;49.382;11.358;2022-10-16T14:36:28;96950.03;;;23.00;53.32
68197;BME280;55019;49.382;11.358;2022-10-16T14:39:00;96957.66;;;22.32;55.41
68197;BME280;55019;49.382;11.358;2022-10-16T14:41:28;96955.22;;;22.60;57.05
68197;BME280;55019;49.382;11.358;2022-10-16T14:44:02;96953.94;;;23.20;54.62
68197;BME280;55019;49.382;11.358;2022-10-16T14:46:34;96960.47;;;22.95;54.03
68197;BME280;55019;49.382;11.358;2022-10-16T14:49:21;96972.03;;;22.48;54.66